Time;durP1;ratioP1;P1;durP2;ratioP2;P2;SDS_P1;SDS_P2;PMS_P1;PMS_P2;Temp;Humidity;BMP_temperature;BMP_pressure;BME280_temperature;BME280_humidity;BME280_pressure;Samples;Min_cycle;Max_cycle;Signal;HPM_P1;HPM_P2
2022/04/08 00:01:01;;;;;;;;;0.25;0.00;;;;;8.96;54.86;99655.88;5022352;28;45289;-79
2022/04/08 00:03:27;;;;;;;;;0.00;0.00;;;;;8.95;54.61;99659.41;5018659;28;46163;-80
2022/04/08 00:05:52;;;;;;;;;0.00;0.00;;;;;8.96;54.51;99661.16;5017526;28;45509;-80
2022/04/08 00:08:21;;;;;;;;;0.00;0.00;;;;;8.96;54.75;99655.88;5017839;28;45392;-79
2022/04/08 00:10:47;;;;;;;;;0.00;0.00;;;;;8.98;54.86;99650.56;5018665;28;45579;-79
2022/04/08 00:13:13;;;;;;;;;0.00;0.00;;;;;8.99;55.41;99653.16;5017807;28;46037;-76
2022/04/08 00:15:39;;;;;;;;;0.00;0.00;;;;;9.00;55.15;99652.25;4997303;28;45481;-76
2022/04/08 00:18:05;;;;;;;;;0.50;0.50;;;;;9.01;55.19;99663.66;5016985;28;45467;-75
2022/04/08 00:20:32;;;;;;;;;1.00;0.00;;;;;9.00;54.39;99644.34;5016540;28;45492;-77
2022/04/08 00:22:57;;;;;;;;;0.00;0.00;;;;;9.02;54.63;99642.53;5015975;28;46083;-76
2022/04/08 00:25:23;;;;;;;;;0.00;0.00;;;;;8.99;55.13;99620.69;5016562;28;45396;-74
2022/04/08 00:27:48;;;;;;;;;0.00;0.00;;;;;9.04;54.43;99635.44;5015989;28;45472;-76
2022/04/08 00:30:13;;;;;;;;;0.00;0.00;;;;;9.07;55.10;99637.97;5019159;28;45428;-76
2022/04/08 00:32:39;;;;;;;;;0.00;0.00;;;;;9.04;54.59;99619.63;5018456;28;45930;-79
2022/04/08 00:35:04;;;;;;;;;0.00;0.00;;;;;9.09;54.76;99629.16;5017502;28;45377;-79
2022/04/08 00:37:30;;;;;;;;;0.00;0.00;;;;;9.12;54.98;99634.34;5018362;28;45653;-79
2022/04/08 00:39:55;;;;;;;;;0.00;0.00;;;;;9.11;55.08;99619.44;5016481;28;45404;-75
2022/04/08 00:42:20;;;;;;;;;0.00;0.00;;;;;9.11;55.12;99628.22;5016226;28;45356;-77
2022/04/08 00:44:46;;;;;;;;;0.00;0.00;;;;;9.17;54.88;99627.16;5016177;28;45413;-75
2022/04/08 00:47:11;;;;;;;;;0.00;0.00;;;;;9.19;55.97;99630.63;5016491;28;45412;-75
2022/04/08 00:49:38;;;;;;;;;1.00;0.00;;;;;9.20;55.71;99627.06;5016325;28;45600;-74
2022/04/08 00:52:04;;;;;;;;;0.00;0.00;;;;;9.20;55.82;99616.53;5014863;28;45360;-76
2022/04/08 00:54:30;;;;;;;;;0.00;0.00;;;;;9.24;55.86;99624.28;5015967;28;45562;-75
2022/04/08 00:56:57;;;;;;;;;0.00;0.00;;;;;9.25;55.50;99619.91;5016156;28;45443;-76
2022/04/08 00:59:25;;;;;;;;;0.75;0.00;;;;;9.25;55.60;99620.75;5016265;28;45626;-77
2022/04/08 01:01:50;;;;;;;;;0.00;0.00;;;;;9.24;55.83;99618.16;5017912;28;45368;-75
2022/04/08 01:04:16;;;;;;;;;0.75;0.00;;;;;9.24;55.40;99619.03;5029995;28;45440;-76
2022/04/08 01:06:43;;;;;;;;;0.00;0.00;;;;;9.25;56.03;99618.13;5034848;28;45447;-76
2022/04/08 01:09:10;;;;;;;;;0.00;0.00;;;;;9.28;56.27;99613.66;5035811;28;45628;-77
2022/04/08 01:11:37;;;;;;;;;0.00;0.00;;;;;9.25;56.46;99604.94;5035266;28;45561;-76
2022/04/08 01:14:14;;;;;;;;;0.00;0.00;;;;;9.25;55.82;99599.66;5033296;28;45500;-75
2022/04/08 01:16:40;;;;;;;;;2.25;0.00;;;;;9.30;56.05;99606.59;5035666;28;45348;-74
2022/04/08 01:19:06;;;;;;;;;0.00;0.00;;;;;9.29;55.61;99599.56;5035566;28;45254;-76
2022/04/08 01:21:33;;;;;;;;;0.00;0.00;;;;;9.25;56.05;99598.81;5029902;28;46351;-76
2022/04/08 01:23:59;;;;;;;;;0.00;0.00;;;;;9.24;56.01;99597.06;5015312;28;45539;-76
2022/04/08 01:26:25;;;;;;;;;0.00;0.00;;;;;9.26;55.21;99597.88;4997513;28;45472;-76
2022/04/08 01:28:54;;;;;;;;;0.00;0.00;;;;;9.29;55.91;99607.47;5015708;28;45397;-76
2022/04/08 01:31:20;;;;;;;;;0.00;0.00;;;;;9.24;56.07;99599.72;5015551;28;45582;-75
2022/04/08 01:33:46;;;;;;;;;0.00;0.00;;;;;9.26;55.89;99605.78;5000210;28;45540;-75
2022/04/08 01:36:12;;;;;;;;;0.00;0.00;;;;;9.16;55.88;99583.28;5016975;28;45652;-76
2022/04/08 01:38:37;;;;;;;;;1.00;0.00;;;;;9.19;56.09;99578.75;5000000;28;45594;-76
2022/04/08 01:41:03;;;;;;;;;0.00;0.00;;;;;9.22;55.50;99596.28;5018578;28;45353;-76
2022/04/08 01:43:28;;;;;;;;;1.00;0.00;;;;;9.20;55.92;99600.72;5014587;28;45313;-76
2022/04/08 01:45:54;;;;;;;;;0.00;0.00;;;;;9.17;56.23;99579.72;5015395;28;45348;-75
2022/04/08 01:48:19;;;;;;;;;1.00;0.00;;;;;9.19;56.48;99581.41;5015424;28;45420;-77
2022/04/08 01:50:45;;;;;;;;;0.00;0.00;;;;;9.16;55.90;99583.28;5015196;28;45759;-76
2022/04/08 01:53:10;;;;;;;;;0.00;0.00;;;;;9.17;56.02;99582.34;5014459;28;45543;-76
2022/04/08 01:55:36;;;;;;;;;0.00;0.00;;;;;9.17;56.40;99587.63;4997466;28;45388;-76
2022/04/08 01:58:02;;;;;;;;;1.00;1.00;;;;;9.17;56.17;99574.44;5015712;28;45373;-76
2022/04/08 02:00:31;;;;;;;;;0.00;0.00;;;;;9.15;56.51;99574.47;5018156;28;46179;-75
2022/04/08 02:02:56;;;;;;;;;2.50;0.00;;;;;9.15;56.43;99571.00;5031991;28;45364;-74
2022/04/08 02:05:21;;;;;;;;;0.00;0.00;;;;;9.15;55.86;99577.13;5036534;28;45580;-76
2022/04/08 02:07:47;;;;;;;;;0.00;0.00;;;;;9.09;56.32;99560.63;5034682;28;45399;-75
2022/04/08 02:10:12;;;;;;;;;0.50;0.00;;;;;9.11;56.97;99575.50;5024990;28;45459;-76
2022/04/08 02:12:38;;;;;;;;;0.50;0.00;;;;;9.11;56.49;99569.34;5015083;28;45456;-76
2022/04/08 02:15:03;;;;;;;;;0.00;0.00;;;;;9.06;56.89;99573.00;4996474;28;45388;-76
2022/04/08 02:17:30;;;;;;;;;0.25;0.00;;;;;9.04;56.86;99569.53;5014916;28;45523;-75
2022/04/08 02:19:56;;;;;;;;;0.00;0.00;;;;;9.03;56.58;99557.28;5035157;28;46059;-76
2022/04/08 02:22:24;;;;;;;;;1.50;1.50;;;;;9.06;56.82;99569.47;5035364;28;45624;-75
2022/04/08 02:24:50;;;;;;;;;0.00;0.00;;;;;9.07;57.63;99568.59;5025979;28;45357;-74
2022/04/08 02:27:16;;;;;;;;;3.25;0.50;;;;;9.07;57.77;99568.59;5026002;28;45431;-76
2022/04/08 02:29:41;;;;;;;;;0.00;0.00;;;;;9.10;57.00;99565.00;5032648;28;45297;-76
2022/04/08 02:32:09;;;;;;;;;3.00;1.00;;;;;9.02;57.55;99552.91;5035634;28;45402;-76
2022/04/08 02:34:36;;;;;;;;;0.00;0.00;;;;;9.07;58.05;99550.13;5039063;28;45357;-74
2022/04/08 02:37:03;;;;;;;;;0.00;0.00;;;;;9.06;57.81;99546.66;5034332;28;45594;-77
2022/04/08 02:39:29;;;;;;;;;0.00;0.00;;;;;9.06;57.63;99557.19;5016233;28;46124;-75
2022/04/08 02:41:54;;;;;;;;;1.00;0.00;;;;;9.04;58.08;99547.59;5014099;28;45429;-76
2022/04/08 02:44:19;;;;;;;;;0.00;0.00;;;;;9.05;58.28;99547.53;5018940;28;45402;-76
2022/04/08 02:46:45;;;;;;;;;0.00;0.00;;;;;9.03;58.62;99541.47;5034850;28;45374;-79
2022/04/08 02:49:10;;;;;;;;;3.25;0.00;;;;;9.03;57.76;99540.59;5033949;28;45472;-79
2022/04/08 02:51:35;;;;;;;;;1.50;0.00;;;;;9.01;58.15;99532.72;5034692;28;45382;-79
2022/04/08 02:54:01;;;;;;;;;2.00;0.00;;;;;9.07;58.34;99535.16;5020090;28;45455;-79
2022/04/08 02:56:26;;;;;;;;;0.00;0.00;;;;;9.05;58.26;99531.72;5016214;28;45353;-80
2022/04/08 02:58:52;;;;;;;;;0.00;0.00;;;;;9.06;58.92;99530.81;5019240;28;45927;-79
2022/04/08 03:01:17;;;;;;;;;0.00;0.00;;;;;9.03;58.93;99530.91;5035414;28;45322;-79
2022/04/08 03:03:43;;;;;;;;;0.00;0.00;;;;;9.02;58.81;99526.56;5014039;28;45336;-79
2022/04/08 03:06:08;;;;;;;;;0.00;0.00;;;;;9.05;58.64;99526.47;5020993;28;45322;-79
2022/04/08 03:08:34;;;;;;;;;0.00;0.00;;;;;9.04;58.65;99527.34;5016502;28;45444;-80
2022/04/08 03:11:00;;;;;;;;;0.00;0.00;;;;;9.01;58.74;99521.31;5015260;28;45770;-80
2022/04/08 03:13:25;;;;;;;;;0.00;0.00;;;;;9.04;58.98;99515.97;5013867;28;45487;-78
2022/04/08 03:15:51;;;;;;;;;0.00;0.00;;;;;9.03;59.08;99508.94;5014457;28;45467;-79
2022/04/08 03:18:16;;;;;;;;;0.50;0.00;;;;;9.07;59.33;99524.63;5015011;28;45471;-80
2022/04/08 03:20:42;;;;;;;;;0.50;0.00;;;;;9.02;60.28;99508.09;5015160;28;45416;-79
2022/04/08 03:23:07;;;;;;;;;2.50;0.00;;;;;9.07;60.36;99511.44;5014749;28;45429;-78
2022/04/08 03:25:32;;;;;;;;;0.00;0.00;;;;;9.03;60.73;99499.28;5017583;28;45404;-80
2022/04/08 03:27:58;;;;;;;;;3.00;1.00;;;;;9.07;60.78;99500.06;5028954;28;46811;-78
2022/04/08 03:30:27;;;;;;;;;0.00;0.00;;;;;9.07;61.37;99500.91;5013749;28;45349;-78
2022/04/08 03:32:52;;;;;;;;;0.00;0.00;;;;;9.03;62.33;99499.28;5014326;28;45499;-80
2022/04/08 03:35:18;;;;;;;;;0.00;0.00;;;;;9.05;62.65;99513.28;5016871;28;45548;-78
2022/04/08 03:37:43;;;;;;;;;0.00;0.00;;;;;9.01;63.80;99506.38;5021887;28;45970;-79
2022/04/08 03:40:09;;;;;;;;;6.00;0.00;;;;;9.03;63.88;99515.09;5017869;28;45569;-79
2022/04/08 03:42:35;;;;;;;;;0.00;0.00;;;;;9.02;65.29;99513.38;5013761;28;45487;-78
2022/04/08 03:45:01;;;;;;;;;0.50;0.50;;;;;8.99;65.91;99508.19;5014118;28;45539;-79
2022/04/08 03:47:26;;;;;;;;;0.00;0.00;;;;;8.99;65.93;99491.53;5013947;28;45427;-78
2022/04/08 03:49:51;;;;;;;;;0.75;0.00;;;;;8.94;67.17;99482.88;5020869;28;45609;-79
2022/04/08 03:52:17;;;;;;;;;0.00;0.00;;;;;8.95;67.31;99481.97;5039805;28;45348;-78
2022/04/08 03:54:42;;;;;;;;;0.00;0.00;;;;;8.92;67.37;99459.22;5021000;28;45478;-80
2022/04/08 03:57:08;;;;;;;;;1.00;0.00;;;;;8.90;67.66;99466.31;5017353;28;46039;-79
2022/04/08 03:59:33;;;;;;;;;0.00;0.00;;;;;8.87;68.80;99461.13;5016896;28;45420;-80
2022/04/08 04:02:01;;;;;;;;;0.00;0.00;;;;;8.81;68.73;99440.25;5017626;28;45297;-79
2022/04/08 04:04:27;;;;;;;;;0.00;0.00;;;;;8.82;69.24;99447.22;5001386;28;45351;-79
2022/04/08 04:06:53;;;;;;;;;0.00;0.00;;;;;8.79;68.93;99447.31;5036961;28;46025;-78
2022/04/08 04:09:19;;;;;;;;;0.00;0.00;;;;;8.77;69.63;99439.47;5007024;28;45371;-79
2022/04/08 04:11:44;;;;;;;;;0.00;0.00;;;;;8.78;69.79;99428.00;5019215;28;45461;-79
2022/04/08 04:14:09;;;;;;;;;0.00;0.00;;;;;8.76;69.27;99428.97;5017994;28;45495;-79
2022/04/08 04:16:35;;;;;;;;;0.50;0.50;;;;;8.74;69.31;99425.53;5017662;28;45468;-79
2022/04/08 04:19:01;;;;;;;;;0.00;0.00;;;;;8.67;70.28;99407.28;5018973;28;45530;-78
2022/04/08 04:21:26;;;;;;;;;0.00;0.00;;;;;8.70;70.92;99401.06;5017436;28;45478;-75
2022/04/08 04:23:52;;;;;;;;;0.25;0.00;;;;;8.68;70.19;99402.84;5014213;28;45435;-76
2022/04/08 04:26:17;;;;;;;;;0.00;0.00;;;;;8.67;69.47;99398.50;5015889;28;45443;-75
2022/04/08 04:28:43;;;;;;;;;0.00;0.00;;;;;8.63;69.37;99397.72;4998966;28;45390;-76
2022/04/08 04:31:08;;;;;;;;;1.00;0.00;;;;;8.63;71.20;99394.25;5016541;28;45467;-76
2022/04/08 04:33:34;;;;;;;;;1.00;0.00;;;;;8.59;69.78;99384.69;5018909;28;45420;-80
2022/04/08 04:36:00;;;;;;;;;0.00;0.00;;;;;8.56;70.00;99377.75;5031758;28;46447;-76
2022/04/08 04:38:25;;;;;;;;;0.50;0.00;;;;;8.56;70.35;99377.75;5008513;28;45554;-76
2022/04/08 04:40:51;;;;;;;;;3.00;0.00;;;;;8.55;71.36;99368.16;5017265;28;45379;-76
2022/04/08 04:43:16;;;;;;;;;0.00;0.00;;;;;8.58;71.17;99367.16;5016329;28;45415;-75
2022/04/08 04:45:42;;;;;;;;;0.00;0.00;;;;;8.58;71.05;99362.78;5022486;28;46255;-76
2022/04/08 04:48:10;;;;;;;;;0.00;0.00;;;;;8.55;70.29;99354.97;5036834;28;45500;-75
2022/04/08 04:50:35;;;;;;;;;0.00;0.00;;;;;8.52;71.30;99352.44;5036758;28;45407;-75
2022/04/08 04:53:01;;;;;;;;;0.00;0.00;;;;;8.51;71.10;99348.06;5024170;28;45449;-76
2022/04/08 04:55:26;;;;;;;;;0.00;0.00;;;;;8.52;70.55;99328.72;5029700;28;46264;-76
2022/04/08 04:57:52;;;;;;;;;0.00;0.00;;;;;8.43;69.97;99316.69;5016109;28;45446;-76
2022/04/08 05:00:18;;;;;;;;;0.00;0.00;;;;;8.45;70.39;99319.28;4998236;28;45509;-75
2022/04/08 05:02:44;;;;;;;;;0.00;0.00;;;;;8.41;70.81;99320.25;5015024;28;45434;-75
2022/04/08 05:05:09;;;;;;;;;0.00;0.00;;;;;8.41;71.55;99304.47;5016906;28;45414;-76
2022/04/08 05:07:35;;;;;;;;;0.00;0.00;;;;;8.38;71.58;99301.91;5018251;28;45543;-76
2022/04/08 05:10:03;;;;;;;;;0.50;0.50;;;;;8.40;72.03;99297.50;5032300;28;45293;-74
2022/04/08 05:12:28;;;;;;;;;0.00;0.00;;;;;8.39;71.57;99288.72;5036873;28;45380;-77
2022/04/08 05:14:53;;;;;;;;;1.00;0.00;;;;;8.32;70.69;99280.16;5031643;28;46205;-75
2022/04/08 05:17:19;;;;;;;;;0.75;0.75;;;;;8.32;71.42;99269.63;5015989;28;45389;-76
2022/04/08 05:19:44;;;;;;;;;0.75;0.75;;;;;8.31;71.36;99270.53;5015776;28;45524;-75
2022/04/08 05:22:09;;;;;;;;;0.00;0.00;;;;;8.28;72.10;99257.47;5019564;28;45281;-79
2022/04/08 05:24:35;;;;;;;;;0.75;0.00;;;;;8.26;72.14;99261.91;5035279;28;45390;-75
2022/04/08 05:27:00;;;;;;;;;0.00;0.00;;;;;8.25;71.65;99259.34;5035732;28;45471;-76
2022/04/08 05:29:25;;;;;;;;;0.50;0.00;;;;;8.24;72.11;99261.09;5033427;28;45504;-77
2022/04/08 05:31:51;;;;;;;;;0.00;0.00;;;;;8.24;71.54;99250.56;4995530;28;45479;-75
2022/04/08 05:34:16;;;;;;;;;1.00;0.00;;;;;8.26;72.88;99253.13;5006721;28;46153;-75
2022/04/08 05:36:41;;;;;;;;;0.25;0.25;;;;;8.29;71.74;99246.03;5014250;28;45436;-76
2022/04/08 05:39:07;;;;;;;;;0.00;0.00;;;;;8.26;71.79;99242.59;5022334;28;45513;-77
2022/04/08 05:41:32;;;;;;;;;1.00;0.00;;;;;8.25;72.24;99236.50;5016720;28;45411;-75
2022/04/08 05:44:01;;;;;;;;;0.00;0.00;;;;;8.25;72.04;99236.50;5014060;28;45424;-76
2022/04/08 05:46:26;;;;;;;;;0.00;0.00;;;;;8.22;71.28;99228.69;5016913;28;45526;-80
2022/04/08 05:48:52;;;;;;;;;1.00;0.00;;;;;8.20;73.08;99222.63;5014933;28;45695;-80
2022/04/08 05:51:17;;;;;;;;;0.00;0.00;;;;;8.18;72.13;99219.16;5021755;28;45348;-80
2022/04/08 05:53:43;;;;;;;;;0.00;0.00;;;;;8.12;71.24;99212.34;5033527;28;45362;-79
2022/04/08 05:56:08;;;;;;;;;0.00;0.00;;;;;8.12;72.01;99206.19;5035443;28;45397;-79
2022/04/08 05:58:33;;;;;;;;;0.00;0.00;;;;;8.12;72.86;99203.56;5027558;28;45455;-78
2022/04/08 06:00:59;;;;;;;;;0.00;0.00;;;;;8.15;73.36;99199.09;5024652;28;45301;-80
2022/04/08 06:03:25;;;;;;;;;0.00;0.00;;;;;8.16;74.16;99195.53;5023340;28;46375;-78
2022/04/08 06:05:50;;;;;;;;;0.00;0.00;;;;;8.16;74.27;99178.88;5031455;28;45451;-79
2022/04/08 06:08:15;;;;;;;;;0.00;0.00;;;;;8.15;74.07;99183.28;5032672;28;45377;-79
2022/04/08 06:10:41;;;;;;;;;0.00;0.00;;;;;8.15;74.80;99177.16;5030134;28;45357;-79
2022/04/08 06:13:06;;;;;;;;;0.50;0.00;;;;;8.15;75.01;99166.63;5029945;28;45380;-81
2022/04/08 06:15:32;;;;;;;;;0.00;0.00;;;;;8.17;75.92;99159.56;5026603;28;45478;-79
2022/04/08 06:17:58;;;;;;;;;3.00;0.00;;;;;8.14;75.49;99157.88;5018558;28;45383;-81
2022/04/08 06:20:24;;;;;;;;;0.00;0.00;;;;;8.12;76.85;99145.66;5014996;28;45455;-80
2022/04/08 06:22:51;;;;;;;;;0.00;0.00;;;;;8.12;76.51;99143.91;5020834;28;45547;-79
2022/04/08 06:25:18;;;;;;;;;0.25;0.00;;;;;8.15;75.59;99135.91;5015296;28;45501;-79
2022/04/08 06:27:47;;;;;;;;;4.00;0.00;;;;;8.12;74.50;99121.97;5015001;28;45572;-80
2022/04/08 06:30:17;;;;;;;;;0.00;0.00;;;;;8.09;75.96;99115.06;5030192;28;45467;-80
2022/04/08 06:32:45;;;;;;;;;0.00;0.00;;;;;8.10;75.19;99116.78;5014025;28;45523;-80
2022/04/08 06:35:11;;;;;;;;;1.00;0.00;;;;;8.06;75.43;99109.03;5014746;28;45424;-82
2022/04/08 06:37:37;;;;;;;;;0.00;0.00;;;;;8.09;76.19;99108.94;5013788;28;45435;-80
2022/04/08 06:40:08;;;;;;;;;1.00;0.00;;;;;8.10;76.57;99102.75;5019488;28;45407;-79
2022/04/08 06:42:34;;;;;;;;;0.75;0.75;;;;;8.07;76.88;99102.88;5018493;28;45507;-80
2022/04/08 06:45:00;;;;;;;;;0.00;0.00;;;;;8.08;76.99;99104.59;5021265;28;45518;-79
2022/04/08 06:47:25;;;;;;;;;0.00;0.00;;;;;8.04;76.83;99105.59;5015853;28;45484;-79
2022/04/08 06:49:50;;;;;;;;;0.25;0.25;;;;;8.02;78.00;99097.75;5014037;28;45398;-79
2022/04/08 06:52:16;;;;;;;;;1.00;0.00;;;;;8.03;78.71;99091.56;5014048;28;45514;-79
2022/04/08 06:54:41;;;;;;;;;1.00;1.00;;;;;7.99;78.77;99088.19;5013761;28;45437;-80
2022/04/08 06:57:07;;;;;;;;;0.00;0.00;;;;;8.06;79.84;99101.13;5014461;28;45492;-80
2022/04/08 06:59:33;;;;;;;;;1.50;1.00;;;;;8.08;78.81;99108.06;5014954;28;45459;-80
2022/04/08 07:01:59;;;;;;;;;1.00;1.00;;;;;8.01;77.42;99102.13;5013738;28;45467;-77
2022/04/08 07:04:25;;;;;;;;;0.75;0.00;;;;;8.00;78.17;99095.19;5013900;28;45476;-76
2022/04/08 07:06:51;;;;;;;;;1.00;0.00;;;;;7.99;80.20;99092.59;5013505;28;45437;-76
2022/04/08 07:09:16;;;;;;;;;0.00;0.00;;;;;8.06;77.95;99098.50;5013948;28;45429;-76
2022/04/08 07:11:41;;;;;;;;;0.50;0.00;;;;;8.04;78.65;99100.34;5034291;28;45976;-76
2022/04/08 07:14:07;;;;;;;;;4.00;0.25;;;;;8.02;79.25;99095.13;5015339;28;51179;-77
2022/04/08 07:16:32;;;;;;;;;1.00;0.00;;;;;8.01;78.06;99091.59;4995943;28;45366;-76
2022/04/08 07:18:58;;;;;;;;;3.75;0.00;;;;;8.04;78.07;99077.50;5013427;28;45468;-77
2022/04/08 07:21:26;;;;;;;;;0.00;0.00;;;;;8.04;78.04;99074.88;5013318;28;45532;-76
2022/04/08 07:23:51;;;;;;;;;0.50;0.50;;;;;7.97;77.23;99070.72;5013265;28;45470;-77
2022/04/08 07:26:18;;;;;;;;;0.50;0.00;;;;;7.95;79.47;99067.28;5017361;28;45380;-76
2022/04/08 07:28:44;;;;;;;;;0.50;0.00;;;;;7.92;78.92;99052.44;5016922;28;45340;-77
2022/04/08 07:31:09;;;;;;;;;0.00;0.00;;;;;7.83;80.60;99044.88;5016775;28;45573;-76
2022/04/08 07:33:35;;;;;;;;;0.50;0.00;;;;;7.83;79.13;99029.09;5016859;28;45375;-76
2022/04/08 07:36:00;;;;;;;;;0.25;0.00;;;;;7.73;79.86;99028.53;5017819;28;45417;-76
2022/04/08 07:38:25;;;;;;;;;0.25;0.25;;;;;7.71;81.03;99026.84;4998409;28;45333;-76
2022/04/08 07:40:51;;;;;;;;;0.00;0.00;;;;;7.61;81.15;99023.69;5019055;28;46296;-77
2022/04/08 07:43:17;;;;;;;;;0.75;0.75;;;;;7.56;82.87;99005.44;5021026;28;45535;-76
2022/04/08 07:45:43;;;;;;;;;0.00;0.00;;;;;7.62;83.04;98994.72;4999863;28;45538;-77
2022/04/08 07:48:08;;;;;;;;;2.50;1.25;;;;;7.57;83.00;98980.84;5017191;28;45602;-75
2022/04/08 07:50:37;;;;;;;;;1.00;0.50;;;;;7.47;83.24;98989.94;5016888;28;45743;-73
2022/04/08 07:53:02;;;;;;;;;1.00;1.00;;;;;7.42;83.37;98986.59;5016479;28;45466;-77
2022/04/08 07:55:29;;;;;;;;;0.00;0.00;;;;;7.35;83.90;98975.44;5016402;28;45550;-75
2022/04/08 07:57:54;;;;;;;;;1.00;1.00;;;;;7.33;83.17;98986.91;4998693;28;45509;-76
2022/04/08 08:00:24;;;;;;;;;2.25;0.00;;;;;7.17;83.25;98974.25;5016566;28;45934;-76
2022/04/08 08:02:49;;;;;;;;;0.00;0.00;;;;;7.06;85.29;98966.69;5016759;28;45417;-74
2022/04/08 08:05:15;;;;;;;;;1.00;0.00;;;;;7.09;87.49;98952.59;5016269;28;45509;-76
2022/04/08 08:07:55;;;;;;;;;3.00;0.00;;;;;7.10;85.52;98956.94;5015972;28;45454;-76
2022/04/08 08:10:21;;;;;;;;;0.00;0.00;;;;;6.92;85.14;98950.50;5019176;28;45416;-76
2022/04/08 08:12:47;;;;;;;;;2.50;0.00;;;;;6.86;85.30;98935.81;5020976;28;45408;-76
2022/04/08 08:15:15;;;;;;;;;3.25;0.00;;;;;6.75;85.87;98922.13;5017344;28;45406;-75
2022/04/08 08:17:41;;;;;;;;;2.00;1.00;;;;;6.62;86.10;98923.41;5015842;28;45571;-76
2022/04/08 08:20:08;;;;;;;;;0.50;0.50;;;;;6.62;86.58;98929.53;5016714;28;45440;-76
2022/04/08 08:22:34;;;;;;;;;0.25;0.00;;;;;6.58;87.68;98915.59;5017045;28;45541;-75
2022/04/08 08:24:59;;;;;;;;;0.00;0.00;;;;;6.55;87.74;98926.19;5021271;28;45258;-75
2022/04/08 08:27:25;;;;;;;;;3.00;0.00;;;;;6.43;87.65;98905.56;5016745;28;45309;-75
2022/04/08 08:29:50;;;;;;;;;0.00;0.00;;;;;6.38;87.28;98896.97;5015688;28;45804;-75
2022/04/08 08:32:15;;;;;;;;;0.00;0.00;;;;;6.35;87.55;98904.94;5016249;28;45372;-75
2022/04/08 08:34:41;;;;;;;;;0.00;0.00;;;;;6.35;87.57;98899.69;5015824;28;45269;-75
2022/04/08 08:37:07;;;;;;;;;0.75;0.00;;;;;6.25;87.95;98885.97;5014596;28;45479;-75
2022/04/08 08:39:33;;;;;;;;;1.00;0.50;;;;;6.18;87.81;98890.53;5015955;28;45345;-75
2022/04/08 08:41:58;;;;;;;;;3.25;2.50;;;;;6.11;88.60;98877.66;5016878;28;45468;-74
2022/04/08 08:44:24;;;;;;;;;1.00;1.00;;;;;6.12;90.37;98880.22;5019412;28;45246;-75
2022/04/08 08:46:57;;;;;;;;;3.00;3.00;;;;;6.12;89.83;98877.59;5016135;28;45496;-75
2022/04/08 08:49:25;;;;;;;;;0.00;0.00;;;;;6.04;89.26;98861.22;5015428;28;45521;-76
2022/04/08 08:51:57;;;;;;;;;1.00;0.00;;;;;6.01;89.75;98870.06;5014655;28;45505;-75
2022/04/08 08:54:23;;;;;;;;;0.00;0.00;;;;;5.97;87.93;98867.56;5031173;28;45502;-75
2022/04/08 08:56:48;;;;;;;;;3.25;0.50;;;;;5.95;88.72;98862.31;5015542;28;45377;-75
2022/04/08 08:59:15;;;;;;;;;0.50;0.00;;;;;5.87;89.50;98843.31;5015157;28;46273;-75
2022/04/08 09:01:41;;;;;;;;;0.50;0.00;;;;;5.84;90.06;98828.50;5015356;28;45563;-75
2022/04/08 09:04:06;;;;;;;;;0.00;0.00;;;;;5.73;88.76;98799.13;5015282;28;45404;-76
2022/04/08 09:06:42;;;;;;;;;0.50;0.50;;;;;5.85;89.58;98824.16;5015598;28;45404;-77
2022/04/08 09:09:07;;;;;;;;;0.75;0.00;;;;;5.85;88.87;98814.50;5016090;28;46007;-76
2022/04/08 09:11:33;;;;;;;;;0.00;0.00;;;;;5.82;89.93;98796.25;5020175;28;45424;-75
2022/04/08 09:14:03;;;;;;;;;0.00;0.00;;;;;5.84;90.09;98801.44;5017920;28;45584;-76
2022/04/08 09:16:35;;;;;;;;;0.00;0.00;;;;;5.82;89.42;98798.84;5015889;28;45481;-75
2022/04/08 09:19:12;;;;;;;;;0.00;0.00;;;;;5.78;90.07;98780.63;5016156;28;45956;-75
2022/04/08 09:21:38;;;;;;;;;2.00;0.50;;;;;5.73;89.30;98778.16;5015324;28;45598;-76
2022/04/08 09:24:07;;;;;;;;;0.00;0.00;;;;;5.64;89.18;98776.66;5016710;28;45349;-77
2022/04/08 09:26:36;;;;;;;;;3.25;1.00;;;;;5.54;90.21;98766.47;5016035;28;45450;-76
2022/04/08 09:29:03;;;;;;;;;1.00;1.00;;;;;5.57;91.13;98762.00;5015158;28;45326;-81
2022/04/08 09:31:29;;;;;;;;;3.25;1.50;;;;;5.56;91.23;98764.66;5014868;28;45382;-77
2022/04/08 09:33:54;;;;;;;;;2.25;0.00;;;;;5.52;91.84;98759.50;5015256;28;45382;-77
2022/04/08 09:36:30;;;;;;;;;1.00;1.00;;;;;5.59;92.08;98769.84;5015038;28;45513;-77
2022/04/08 09:38:56;;;;;;;;;1.00;1.00;;;;;5.58;93.18;98762.88;5014422;28;47366;-77
2022/04/08 09:41:35;;;;;;;;;1.00;0.00;;;;;5.60;93.73;98785.53;5014885;28;45910;-76
2022/04/08 09:44:01;;;;;;;;;0.75;0.00;;;;;5.69;93.98;98797.47;5017327;28;45344;-76
2022/04/08 09:46:26;;;;;;;;;6.50;1.50;;;;;5.70;93.54;98783.47;5018115;28;45555;-77
2022/04/08 09:48:51;;;;;;;;;1.00;1.00;;;;;5.66;93.18;98782.72;5014598;28;46768;-75
2022/04/08 09:51:23;;;;;;;;;3.00;1.00;;;;;5.72;92.40;98807.88;5015793;28;45527;-77
2022/04/08 09:53:57;;;;;;;;;6.00;0.50;;;;;5.68;92.47;98785.31;5015307;28;45450;-77
2022/04/08 09:56:24;;;;;;;;;0.75;0.00;;;;;5.69;92.50;98787.88;5014732;28;45393;-76
2022/04/08 09:58:57;;;;;;;;;0.00;0.00;;;;;5.73;92.83;98786.00;5014151;28;45443;-75
2022/04/08 10:01:25;;;;;;;;;3.00;3.00;;;;;5.76;93.05;98782.47;5014775;28;45461;-77
2022/04/08 10:03:51;;;;;;;;;0.00;0.00;;;;;5.86;92.96;98784.75;5014452;28;45317;-77
2022/04/08 10:06:17;;;;;;;;;0.75;0.00;;;;;5.86;92.07;98771.66;5015401;28;45405;-77
2022/04/08 10:08:43;;;;;;;;;0.00;0.00;;;;;5.86;90.27;98757.66;5014517;28;46267;-76
2022/04/08 10:11:14;;;;;;;;;0.00;0.00;;;;;5.87;89.67;98759.38;5014668;28;45435;-76
2022/04/08 10:13:58;;;;;;;;;0.00;0.00;;;;;5.90;89.91;98785.53;5016181;28;45488;-77
2022/04/08 10:16:24;;;;;;;;;1.50;1.50;;;;;5.86;90.20;98795.25;5016091;28;45408;-76
2022/04/08 10:18:50;;;;;;;;;0.00;0.00;;;;;5.99;90.54;98795.78;5015554;28;45454;-76
2022/04/08 10:21:16;;;;;;;;;0.00;0.00;;;;;5.94;89.45;98763.56;5014681;28;45502;-76
2022/04/08 10:23:55;;;;;;;;;0.50;0.50;;;;;5.84;89.51;98762.97;5014480;28;45461;-76
2022/04/08 10:26:22;;;;;;;;;0.50;0.00;;;;;5.83;89.15;98747.28;5014746;28;45325;-76
2022/04/08 10:28:50;;;;;;;;;1.00;0.00;;;;;5.84;88.72;98749.84;5013946;28;46432;-76
2022/04/08 10:31:20;;;;;;;;;0.50;0.50;;;;;5.84;89.84;98744.59;5014847;28;45459;-76
2022/04/08 10:34:05;;;;;;;;;3.00;0.00;;;;;5.91;89.51;98747.91;5014110;28;45390;-76
2022/04/08 10:36:38;;;;;;;;;0.00;0.00;;;;;5.91;88.19;98741.81;5013074;28;45740;-76
2022/04/08 10:39:17;;;;;;;;;3.00;3.00;;;;;6.07;89.71;98732.59;5013542;28;45960;-76
2022/04/08 10:41:46;;;;;;;;;1.50;0.25;;;;;6.02;87.75;98703.03;5013850;28;45465;-76
2022/04/08 10:44:12;;;;;;;;;3.00;0.00;;;;;5.99;88.34;98697.88;5015075;28;45340;-76
2022/04/08 10:46:51;;;;;;;;;1.00;0.00;;;;;5.83;87.82;98672.09;5014047;28;45396;-76
2022/04/08 10:49:17;;;;;;;;;0.75;0.25;;;;;5.81;89.58;98655.53;5014262;28;45415;-76
2022/04/08 10:51:48;;;;;;;;;3.75;3.75;;;;;5.82;89.87;98645.94;5013458;28;45445;-76
2022/04/08 10:54:15;;;;;;;;;3.50;3.50;;;;;5.99;90.58;98653.31;5014017;28;45480;-77
2022/04/08 10:56:40;;;;;;;;;9.25;3.25;;;;;6.11;89.79;98650.28;5014005;28;45501;-76
2022/04/08 10:59:06;;;;;;;;;1.50;1.50;;;;;6.20;88.88;98651.75;5014628;28;45993;-75
2022/04/08 11:01:35;;;;;;;;;22.50;22.50;;;;;6.35;89.93;98668.75;5017150;28;45490;-75
2022/04/08 11:04:03;;;;;;;;;3.25;1.00;;;;;6.44;89.83;98667.59;5017191;28;45421;-76
2022/04/08 11:06:33;;;;;;;;;9.00;3.50;;;;;6.35;88.69;98645.16;5017187;28;45412;-76
2022/04/08 11:09:19;;;;;;;;;9.25;6.75;;;;;6.29;89.54;98701.31;5016728;28;45903;-76
2022/04/08 11:11:47;;;;;;;;;3.00;3.00;;;;;6.33;89.18;98665.31;5018711;28;45502;-76
2022/04/08 11:14:12;;;;;;;;;8.50;6.75;;;;;6.40;90.16;98687.84;5019412;28;45579;-76
2022/04/08 11:16:39;;;;;;;;;5.00;4.00;;;;;6.53;88.88;98686.53;5018710;28;45540;-76
2022/04/08 11:19:06;;;;;;;;;6.00;4.00;;;;;6.69;89.59;98678.97;5017106;28;46501;-75
2022/04/08 11:21:34;;;;;;;;;9.00;2.50;;;;;6.76;87.88;98674.38;5016999;28;45519;-76
2022/04/08 11:24:10;;;;;;;;;3.75;3.75;;;;;6.87;87.59;98676.63;5016728;28;45521;-76
2022/04/08 11:26:42;;;;;;;;;3.75;0.25;;;;;6.92;86.64;98675.56;5015923;28;45443;-76
2022/04/08 11:29:14;;;;;;;;;4.00;3.00;;;;;6.90;86.62;98682.63;5017033;28;46462;-76
2022/04/08 11:31:39;;;;;;;;;1.00;1.00;;;;;6.94;87.42;98684.25;5017200;28;45562;-77
2022/04/08 11:34:05;;;;;;;;;19.25;17.25;;;;;6.99;86.61;98664.84;5016903;28;45518;-76
2022/04/08 11:36:32;;;;;;;;;0.25;0.25;;;;;7.06;85.11;98674.19;5016732;28;45494;-75
2022/04/08 11:38:57;;;;;;;;;3.75;3.75;;;;;7.05;85.86;98664.63;5016682;28;45576;-76